createdAt,value
2016-08-23T14:44:04.129Z,5704
2016-08-23T14:45:06.016Z,5748
2016-08-23T14:46:05.429Z,5768
2016-08-23T14:47:05.296Z,5772
2016-08-23T14:48:05.121Z,5776
2016-08-23T14:49:05.590Z,5788
2016-08-23T14:50:05.154Z,5784
2016-08-23T14:51:05.030Z,5804
2016-08-23T14:52:05.047Z,5796
2016-08-23T14:53:03.769Z,5872
2016-08-23T14:54:03.899Z,5896
2016-08-23T14:55:03.847Z,5916
2016-08-23T14:56:03.450Z,5944
2016-08-23T14:57:04.073Z,5988
2016-08-23T14:58:04.738Z,5992
2016-08-23T14:59:03.989Z,6000
2016-08-23T15:00:04.211Z,6008
2016-08-23T15:01:04.373Z,6044
2016-08-23T15:02:04.080Z,6072
2016-08-23T15:03:02.826Z,6072
2016-08-23T15:04:02.706Z,6028
2016-08-23T15:05:04.639Z,6036
2016-08-23T15:06:04.615Z,6028
2016-08-23T15:07:04.423Z,6056
2016-08-23T15:08:02.966Z,6028
2016-08-23T15:09:04.331Z,6052
2016-08-23T15:10:02.175Z,6044
2016-08-23T15:11:02.840Z,6008
2016-08-23T15:12:04.801Z,6032
2016-08-23T15:13:04.185Z,6048
2016-08-23T15:14:04.299Z,5996
2016-08-23T15:15:02.864Z,5980
2016-08-23T15:16:03.534Z,5928
2016-08-23T15:17:02.601Z,5892
2016-08-23T15:18:04.358Z,5856
2016-08-23T15:19:02.513Z,5828
2016-08-23T15:20:03.216Z,5800
2016-08-23T15:21:02.623Z,5776
2016-08-23T15:22:04.483Z,5764
2016-08-23T15:23:02.374Z,5796
2016-08-23T15:24:02.539Z,5784
2016-08-23T15:25:03.937Z,5736
2016-08-23T15:26:04.495Z,5664
2016-08-23T15:27:03.142Z,5616
2016-08-23T15:28:03.103Z,5612
2016-08-23T15:29:01.642Z,5580
2016-08-23T15:30:03.508Z,5548
2016-08-23T15:31:02.842Z,5520
2016-08-23T15:32:03.424Z,5504
2016-08-23T15:33:03.404Z,5472
2016-08-23T15:34:03.596Z,5400
2016-08-23T15:35:02.878Z,5328
2016-08-23T15:36:02.816Z,5272
2016-08-23T15:37:03.452Z,5224
2016-08-23T15:38:03.437Z,5164
2016-08-23T15:39:01.081Z,5096
2016-08-23T15:40:02.408Z,5044
2016-08-23T15:41:03.455Z,5064
2016-08-23T15:42:03.048Z,5060
2016-08-23T15:43:02.037Z,5040
2016-08-23T15:44:02.460Z,5004
2016-08-23T15:45:02.427Z,4964
2016-08-23T15:46:02.394Z,4924
2016-08-23T15:47:02.219Z,4868
2016-08-23T15:48:03.013Z,4828
2016-08-23T15:49:02.086Z,4780
2016-08-23T15:50:02.032Z,5020
2016-08-23T15:51:02.015Z,6104
2016-08-23T15:52:02.364Z,7172
2016-08-23T15:53:02.540Z,7428
2016-08-23T15:54:01.322Z,7428
2016-08-23T15:55:03.357Z,7424
2016-08-23T15:56:03.524Z,7396
2016-08-23T15:57:01.047Z,7380
2016-08-23T15:58:03.625Z,7344
2016-08-23T15:59:01.705Z,7368
2016-08-23T16:00:02.844Z,7332
2016-08-23T16:01:02.037Z,7312
2016-08-23T16:02:01.911Z,7252
2016-08-23T16:03:03.446Z,7212
2016-08-23T16:04:00.176Z,7268
2016-08-23T16:05:02.375Z,7300
2016-08-23T16:06:01.681Z,7388
2016-08-23T16:07:02.298Z,7400
2016-08-23T16:08:01.775Z,7452
2016-08-23T16:09:02.214Z,7360
2016-08-23T16:10:00.611Z,7268
2016-08-23T16:11:02.055Z,7188
2016-08-23T16:12:00.759Z,7124
2016-08-23T16:13:01.396Z,6396
2016-08-23T16:14:00.435Z,4620
2016-08-23T16:15:02.003Z,2692
2016-08-23T16:15:59.664Z,1804
2016-08-23T16:17:01.156Z,1536
2016-08-23T16:18:01.010Z,1404
2016-08-23T16:19:00.965Z,1344
2016-08-23T16:20:01.612Z,1300
2016-08-23T16:21:00.398Z,1256
2016-08-23T16:22:01.262Z,1228
2016-08-23T16:23:00.899Z,1204
2016-08-23T16:24:01.558Z,1180
2016-08-23T16:25:00.737Z,1164
2016-08-23T16:26:00.922Z,1140
2016-08-23T16:27:00.980Z,1124
2016-08-23T16:28:00.651Z,1064
2016-08-23T16:29:00.676Z,1048
2016-08-23T16:30:00.267Z,1036
2016-08-23T16:31:00.965Z,1024
2016-08-23T16:32:00.485Z,1016
2016-08-23T16:33:00.473Z,1008
2016-08-23T16:33:59.696Z,1000
2016-08-23T16:35:00.579Z,988
2016-08-23T16:36:00.504Z,976
2016-08-23T16:37:00.286Z,968
2016-08-23T16:38:00.969Z,964
2016-08-23T16:38:58.907Z,956
2016-08-23T16:40:00.220Z,956
2016-08-23T16:41:00.326Z,944
2016-08-23T16:42:00.863Z,944
2016-08-23T16:43:00.287Z,936
2016-08-23T16:44:00.021Z,924
2016-08-23T16:44:59.494Z,916
2016-08-23T16:46:01.053Z,908
2016-08-23T16:46:59.942Z,896
2016-08-23T16:47:59.908Z,888
2016-08-23T16:48:59.831Z,872
2016-08-23T16:50:00.590Z,808
2016-08-23T16:50:59.757Z,804
2016-08-23T16:51:59.741Z,800
2016-08-23T16:52:59.256Z,792
2016-08-23T16:54:00.333Z,844
2016-08-23T16:54:59.701Z,832
2016-08-23T16:56:00.250Z,832
2016-08-23T16:56:58.820Z,828
2016-08-23T16:58:00.371Z,816
2016-08-23T16:58:58.721Z,804
2016-08-23T17:00:00.369Z,792
2016-08-23T17:01:00.099Z,784
2016-08-23T17:02:00.204Z,772
2016-08-23T17:03:00.180Z,764
2016-08-23T17:03:59.225Z,752
2016-08-23T17:04:59.224Z,744
2016-08-23T17:05:59.847Z,736
2016-08-23T17:07:00.042Z,732
2016-08-23T17:07:58.615Z,720
2016-08-23T17:08:59.944Z,716
2016-08-23T17:09:59.006Z,708
2016-08-23T17:10:59.008Z,696
2016-08-23T17:11:59.995Z,692
2016-08-23T17:12:59.105Z,684
2016-08-23T17:13:59.722Z,672
2016-08-23T17:14:59.740Z,664
2016-08-23T17:15:58.334Z,656
2016-08-23T17:16:58.358Z,652
2016-08-23T17:17:58.775Z,644
2016-08-23T17:18:58.380Z,640
2016-08-23T17:19:57.271Z,632
2016-08-23T17:20:58.569Z,624
2016-08-23T17:21:57.805Z,612
2016-08-23T17:22:58.686Z,608
2016-08-23T17:23:58.433Z,604
2016-08-23T17:24:57.272Z,596
2016-08-23T17:25:59.694Z,592
2016-08-23T17:26:59.438Z,584
2016-08-23T17:27:58.992Z,580
2016-08-23T17:28:58.478Z,576
2016-08-23T17:29:58.416Z,568
2016-08-23T17:30:59.063Z,560
2016-08-23T17:31:59.012Z,552
2016-08-23T17:32:57.365Z,548
2016-08-23T17:33:58.754Z,540
2016-08-23T17:34:58.173Z,532
2016-08-23T17:35:58.007Z,524
2016-08-23T17:36:58.624Z,520
2016-08-23T17:37:57.189Z,512
2016-08-23T17:38:58.930Z,504
2016-08-23T17:39:58.580Z,492
2016-08-23T17:40:57.969Z,488
2016-08-23T17:41:57.734Z,480
2016-08-23T17:42:57.684Z,472
2016-08-23T17:43:57.618Z,460
2016-08-23T17:44:57.619Z,456
2016-08-23T17:45:57.562Z,452
2016-08-23T17:46:58.624Z,440
2016-08-23T17:47:58.563Z,436
2016-08-23T17:48:56.743Z,432
2016-08-23T17:49:56.889Z,424
2016-08-23T17:50:58.476Z,412
2016-08-23T17:51:57.522Z,408
2016-08-23T17:52:58.165Z,400
2016-08-23T17:53:57.927Z,392
2016-08-23T17:54:57.887Z,384
2016-08-23T17:55:58.034Z,376
2016-08-23T17:56:58.077Z,368
2016-08-23T17:57:56.790Z,360
2016-08-23T17:58:57.076Z,344
2016-08-23T17:59:57.685Z,344
2016-08-23T18:00:57.181Z,336
2016-08-23T18:01:57.637Z,328
2016-08-23T18:02:57.581Z,320
2016-08-23T18:03:56.856Z,308
2016-08-23T18:04:57.585Z,300
2016-08-23T18:05:56.049Z,296
2016-08-23T18:06:56.826Z,284
2016-08-23T18:07:56.644Z,280
2016-08-23T18:08:57.819Z,268
2016-08-23T18:09:57.287Z,260
2016-08-23T18:10:57.227Z,252
2016-08-23T18:11:56.884Z,244
2016-08-23T18:12:57.383Z,236
2016-08-23T18:13:57.560Z,228
2016-08-23T18:14:56.365Z,216
2016-08-23T18:15:57.141Z,212
2016-08-23T18:16:57.008Z,200
2016-08-23T18:17:57.188Z,192
2016-08-23T18:18:55.524Z,188
2016-08-23T18:19:56.192Z,176
2016-08-23T18:20:56.126Z,168
2016-08-23T18:21:56.892Z,160
2016-08-23T18:22:56.805Z,152
2016-08-23T18:23:56.077Z,144
2016-08-23T18:24:55.969Z,136
2016-08-23T18:25:55.918Z,128
2016-08-23T18:26:55.899Z,124
2016-08-23T18:27:56.743Z,116
2016-08-23T18:28:55.511Z,108
2016-08-23T18:29:55.965Z,100
2016-08-23T18:30:55.755Z,92
2016-08-23T18:31:55.938Z,88
2016-08-23T18:32:54.933Z,84
2016-08-23T18:33:54.908Z,76
2016-08-23T18:34:55.552Z,72
2016-08-23T18:35:56.211Z,68
2016-08-23T18:36:55.464Z,60
2016-08-23T18:37:55.432Z,56
2016-08-23T18:38:54.925Z,52
2016-08-23T18:39:56.130Z,48
2016-08-23T18:40:55.350Z,44
2016-08-23T18:41:55.023Z,40
2016-08-23T18:42:55.240Z,36
2016-08-23T18:43:55.198Z,36
2016-08-23T18:44:55.933Z,28
2016-08-23T18:45:56.004Z,28
2016-08-23T18:46:55.082Z,24
2016-08-23T18:47:55.733Z,20
2016-08-23T18:48:55.049Z,16
2016-08-23T18:49:55.016Z,16
2016-08-23T18:50:55.637Z,16
2016-08-23T18:51:54.877Z,12
2016-08-23T18:52:55.825Z,12
2016-08-23T18:53:54.774Z,12
2016-08-23T18:54:54.745Z,8
2016-08-23T18:55:55.417Z,8
2016-08-23T18:56:54.007Z,4
2016-08-23T18:57:54.038Z,8
2016-08-23T18:58:55.289Z,4
2016-08-23T18:59:55.638Z,4
2016-08-23T19:00:53.187Z,8
2016-08-23T19:01:55.322Z,4
2016-08-23T19:02:54.189Z,4
2016-08-23T19:03:55.177Z,4
2016-08-23T19:04:54.381Z,4
2016-08-23T19:05:53.897Z,4
2016-08-23T19:06:54.273Z,0
2016-08-23T19:07:54.427Z,4
2016-08-23T19:08:54.203Z,4
2016-08-23T19:09:54.193Z,4
2016-08-23T19:10:55.027Z,4
2016-08-23T19:11:54.058Z,4
2016-08-23T19:12:54.916Z,4
2016-08-23T19:13:54.008Z,4
2016-08-23T19:14:54.884Z,4
2016-08-23T19:15:54.589Z,4
2016-08-23T19:16:53.881Z,4
2016-08-23T19:17:54.487Z,4
2016-08-23T19:18:53.106Z,4
2016-08-23T19:19:53.718Z,4
2016-08-23T19:20:54.421Z,4
2016-08-23T19:21:52.927Z,4
2016-08-23T19:22:53.817Z,4
2016-08-23T19:23:54.462Z,4
2016-08-23T19:24:53.513Z,4
2016-08-23T19:25:53.479Z,4
2016-08-23T19:26:53.445Z,0
2016-08-23T19:27:53.397Z,0
2016-08-23T19:28:54.047Z,0
2016-08-23T19:29:54.015Z,0
2016-08-23T19:30:53.256Z,0
2016-08-23T19:31:53.946Z,0
2016-08-23T19:32:53.199Z,0
2016-08-23T19:33:52.474Z,0
2016-08-23T19:34:53.343Z,0
2016-08-23T19:35:53.741Z,0
2016-08-23T19:36:52.565Z,0
2016-08-23T19:37:53.659Z,0
2016-08-23T19:38:53.155Z,0
2016-08-23T19:39:53.617Z,0
2016-08-23T19:40:53.633Z,0
2016-08-23T19:41:52.916Z,0
2016-08-23T19:42:53.496Z,0
2016-08-23T19:43:53.520Z,0
2016-08-23T19:44:52.953Z,0
2016-08-23T19:45:52.635Z,0
2016-08-23T19:46:52.685Z,0
2016-08-23T19:47:53.469Z,0
2016-08-23T19:48:53.227Z,0
2016-08-23T19:49:52.550Z,0
2016-08-23T19:50:52.506Z,0
2016-08-23T19:51:52.398Z,0
2016-08-23T19:52:53.096Z,0
2016-08-23T19:53:52.342Z,0
2016-08-23T19:54:52.285Z,0
2016-08-23T19:55:52.462Z,0
2016-08-23T19:56:52.682Z,0
2016-08-23T19:57:52.985Z,0
2016-08-23T19:58:52.791Z,0
2016-08-23T19:59:53.034Z,0
2016-08-23T20:00:52.774Z,0
2016-08-23T20:01:52.250Z,0
2016-08-23T20:02:52.620Z,0
2016-08-23T20:03:52.692Z,0
2016-08-23T20:04:51.145Z,0
2016-08-23T20:05:51.828Z,0
2016-08-23T20:06:52.545Z,0
2016-08-23T20:07:52.445Z,0
2016-08-23T20:08:51.954Z,0
2016-08-23T20:09:52.450Z,0
2016-08-23T20:10:51.678Z,0
2016-08-23T20:11:50.883Z,0
2016-08-23T20:12:52.245Z,0
2016-08-23T20:13:52.351Z,0
2016-08-23T20:14:52.262Z,0
2016-08-23T20:15:52.403Z,0
2016-08-23T20:16:51.433Z,0
2016-08-23T20:17:52.205Z,0
2016-08-23T20:18:52.123Z,0
2016-08-23T20:19:51.315Z,0
2016-08-23T20:20:51.126Z,0
2016-08-23T20:21:51.345Z,0
2016-08-23T20:22:51.103Z,0
2016-08-23T20:23:51.079Z,0
2016-08-23T20:24:51.718Z,0
2016-08-23T20:25:50.953Z,0
2016-08-23T20:26:51.177Z,0
2016-08-23T20:27:51.976Z,0
2016-08-23T20:28:50.821Z,0
2016-08-23T20:29:51.511Z,0
2016-08-23T20:30:50.733Z,0
2016-08-23T20:31:51.425Z,0
2016-08-23T20:32:50.696Z,0
2016-08-23T20:33:51.413Z,0
2016-08-23T20:34:49.946Z,0
2016-08-23T20:35:50.596Z,0
2016-08-23T20:36:49.997Z,0
2016-08-23T20:37:50.490Z,0
2016-08-23T20:38:50.426Z,0
2016-08-23T20:39:50.774Z,0
2016-08-23T20:40:51.046Z,0
2016-08-23T20:41:51.261Z,0
2016-08-23T20:42:50.244Z,0
2016-08-23T20:43:50.895Z,0
2016-08-23T20:44:50.145Z,0
2016-08-23T20:45:50.129Z,0
2016-08-23T20:46:49.385Z,0
2016-08-23T20:47:50.031Z,0
2016-08-23T20:48:50.694Z,0
2016-08-23T20:49:50.833Z,0
2016-08-23T20:50:50.593Z,0
2016-08-23T20:51:50.575Z,0
2016-08-23T20:52:50.514Z,0
2016-08-23T20:53:49.754Z,0
2016-08-23T20:54:49.724Z,0
2016-08-23T20:55:50.604Z,0
2016-08-23T20:56:49.679Z,0
2016-08-23T20:57:49.822Z,0
2016-08-23T20:58:50.285Z,0
2016-08-23T20:59:49.715Z,0
2016-08-23T21:00:48.994Z,0
2016-08-23T21:01:49.865Z,0
2016-08-23T21:02:49.391Z,0
2016-08-23T21:03:48.641Z,0
2016-08-23T21:04:50.022Z,0
2016-08-23T21:05:50.164Z,0
2016-08-23T21:06:50.124Z,0
2016-08-23T21:07:49.383Z,0
2016-08-23T21:08:49.616Z,0
2016-08-23T21:09:49.105Z,0
2016-08-23T21:10:48.562Z,0
2016-08-23T21:11:49.010Z,0
2016-08-23T21:12:49.684Z,0
2016-08-23T21:13:48.945Z,0
2016-08-23T21:14:49.602Z,0
2016-08-23T21:15:49.559Z,0
2016-08-23T21:16:48.803Z,0
2016-08-23T21:17:49.439Z,0
2016-08-23T21:18:50.314Z,0
2016-08-23T21:19:49.378Z,0
2016-08-23T21:20:48.813Z,0
2016-08-23T21:21:48.602Z,0
2016-08-23T21:22:49.251Z,0
2016-08-23T21:23:49.492Z,0
2016-08-23T21:24:47.780Z,0
2016-08-23T21:25:48.638Z,0
2016-08-23T21:26:48.391Z,0
2016-08-23T21:27:48.356Z,0
2016-08-23T21:28:49.203Z,0
2016-08-23T21:29:49.146Z,0
2016-08-23T21:30:48.903Z,0
2016-08-23T21:31:48.581Z,0
2016-08-23T21:32:48.911Z,0
2016-08-23T21:33:48.984Z,0
2016-08-23T21:34:47.366Z,0
2016-08-23T21:35:48.244Z,0
2016-08-23T21:36:47.942Z,0
2016-08-23T21:37:48.800Z,0
2016-08-23T21:38:49.000Z,0
2016-08-23T21:39:47.819Z,0
2016-08-23T21:40:47.786Z,0
2016-08-23T21:41:49.062Z,0
2016-08-23T21:42:48.592Z,0
2016-08-23T21:43:48.330Z,0
2016-08-23T21:44:48.321Z,0
2016-08-23T21:45:47.581Z,0
2016-08-23T21:46:48.226Z,0
2016-08-23T21:47:46.992Z,0
2016-08-23T21:48:48.143Z,0
2016-08-23T21:49:46.713Z,0
2016-08-23T21:50:48.041Z,0
2016-08-23T21:51:47.331Z,0
2016-08-23T21:52:47.285Z,0
2016-08-23T21:53:47.419Z,0
2016-08-23T21:54:47.871Z,0
2016-08-23T21:55:47.171Z,0
2016-08-23T21:56:47.772Z,0
2016-08-23T21:57:47.050Z,0
2016-08-23T21:58:47.944Z,0
2016-08-23T21:59:47.288Z,0
2016-08-23T22:00:45.651Z,0
2016-08-23T22:01:46.899Z,0
2016-08-23T22:02:48.751Z,0
2016-08-23T22:03:47.496Z,0
2016-08-23T22:04:46.333Z,0
2016-08-23T22:05:47.622Z,0
2016-08-23T22:06:47.560Z,0
2016-08-23T22:07:46.642Z,0
2016-08-23T22:08:45.885Z,0
2016-08-23T22:09:46.551Z,0
2016-08-23T22:10:47.203Z,0
2016-08-23T22:11:47.152Z,0
2016-08-23T22:12:47.110Z,0
2016-08-23T22:13:47.253Z,0
2016-08-23T22:14:47.009Z,0
2016-08-23T22:15:46.272Z,0
2016-08-23T22:16:46.964Z,0
2016-08-23T22:17:46.882Z,0
2016-08-23T22:18:47.042Z,0
2016-08-23T22:19:46.313Z,0
2016-08-23T22:20:46.094Z,0
2016-08-23T22:21:47.134Z,0
2016-08-23T22:22:46.870Z,0
2016-08-23T22:23:46.339Z,0
2016-08-23T22:24:45.882Z,0
2016-08-23T22:25:46.564Z,0
2016-08-23T22:26:46.706Z,0
2016-08-23T22:27:46.452Z,0
2016-08-23T22:28:46.403Z,0
2016-08-23T22:29:46.372Z,0
2016-08-23T22:30:45.633Z,0
2016-08-23T22:31:46.290Z,0
2016-08-23T22:32:46.452Z,0
2016-08-23T22:33:46.390Z,0
2016-08-23T22:34:46.175Z,0
2016-08-23T22:35:45.415Z,0
2016-08-23T22:36:46.045Z,0
2016-08-23T22:37:45.333Z,0
2016-08-23T22:38:45.270Z,0
2016-08-23T22:39:45.227Z,0
2016-08-23T22:40:44.488Z,0
2016-08-23T22:41:46.054Z,0
2016-08-23T22:42:45.111Z,0
2016-08-23T22:43:45.962Z,0
2016-08-23T22:44:45.025Z,0
2016-08-23T22:45:45.687Z,0
2016-08-23T22:46:44.952Z,0
2016-08-23T22:47:44.273Z,0
2016-08-23T22:48:45.547Z,0
2016-08-23T22:49:45.010Z,0
2016-08-23T22:50:45.465Z,0
2016-08-23T22:51:44.985Z,0
2016-08-23T22:52:45.576Z,0
2016-08-23T22:53:44.699Z,0
2016-08-23T22:54:44.594Z,0
2016-08-23T22:55:45.245Z,0
2016-08-23T22:56:45.237Z,0
2016-08-23T22:57:44.464Z,0
2016-08-23T22:58:45.182Z,0
2016-08-23T22:59:44.375Z,0
2016-08-23T23:00:43.620Z,0
2016-08-23T23:01:45.183Z,0
2016-08-23T23:02:45.237Z,0
2016-08-23T23:03:44.401Z,0
2016-08-23T23:04:44.208Z,0
2016-08-23T23:05:44.811Z,0
2016-08-23T23:06:44.132Z,0
2016-08-23T23:07:44.242Z,0
2016-08-23T23:08:44.692Z,0
2016-08-23T23:09:44.623Z,0
2016-08-23T23:10:44.595Z,0
2016-08-23T23:11:43.852Z,0
2016-08-23T23:12:44.703Z,0
2016-08-23T23:13:44.471Z,0
2016-08-23T23:14:43.711Z,0
2016-08-23T23:15:43.394Z,0
2016-08-23T23:16:43.865Z,0
2016-08-23T23:17:43.591Z,0
2016-08-23T23:18:44.250Z,0
2016-08-23T23:19:44.213Z,0
2016-08-23T23:20:44.141Z,0
2016-08-23T23:21:43.470Z,0
2016-08-23T23:22:44.069Z,0
2016-08-23T23:23:44.032Z,0
2016-08-23T23:24:42.573Z,0
2016-08-23T23:25:43.952Z,0
2016-08-23T23:26:43.892Z,0
2016-08-23T23:27:43.845Z,0
2016-08-23T23:28:43.124Z,0
2016-08-23T23:29:43.077Z,0
2016-08-23T23:30:43.243Z,0
2016-08-23T23:31:42.974Z,0
2016-08-23T23:32:42.952Z,0
2016-08-23T23:33:43.602Z,0
2016-08-23T23:34:43.752Z,0
2016-08-23T23:35:43.512Z,0
2016-08-23T23:36:42.965Z,0
2016-08-23T23:37:43.412Z,0
2016-08-23T23:38:42.882Z,0
2016-08-23T23:39:42.634Z,0
2016-08-23T23:40:43.553Z,0
2016-08-23T23:41:42.552Z,0
2016-08-23T23:42:43.200Z,0
2016-08-23T23:43:42.861Z,0
2016-08-23T23:44:43.343Z,0
2016-08-23T23:45:42.382Z,0
2016-08-23T23:46:43.289Z,0
2016-08-23T23:47:42.975Z,0
2016-08-23T23:48:42.953Z,0
2016-08-23T23:49:42.892Z,0
2016-08-23T23:50:42.161Z,0
2016-08-23T23:51:42.118Z,0
2016-08-23T23:52:42.067Z,0
2016-08-23T23:53:42.221Z,0
2016-08-23T23:54:41.343Z,0
2016-08-23T23:55:41.993Z,0
2016-08-23T23:56:43.226Z,0
2016-08-23T23:57:42.543Z,0
2016-08-23T23:58:41.803Z,0
2016-08-23T23:59:42.474Z,0
